sensor_id;sensor_type;location;lat;lon;timestamp;temperature;humidity
36990;DHT22;22898;52.102;5.776;2023-01-15T00:01:32;12.10;99.90
36990;DHT22;22898;52.102;5.776;2023-01-15T00:04:03;12.20;99.90
36990;DHT22;22898;52.102;5.776;2023-01-15T00:06:30;12.80;99.90
36990;DHT22;22898;52.102;5.776;2023-01-15T00:08:57;13.10;99.90
36990;DHT22;22898;52.102;5.776;2023-01-15T00:11:26;13.40;99.90
36990;DHT22;22898;52.102;5.776;2023-01-15T00:13:51;13.30;99.90
36990;DHT22;22898;52.102;5.776;2023-01-15T00:16:22;13.10;99.90
36990;DHT22;22898;52.102;5.776;2023-01-15T00:18:56;12.90;99.90
36990;DHT22;22898;52.102;5.776;2023-01-15T00:21:23;12.90;99.90
36990;DHT22;22898;52.102;5.776;2023-01-15T00:23:49;12.30;99.90
36990;DHT22;22898;52.102;5.776;2023-01-15T00:26:34;11.90;99.90
36990;DHT22;22898;52.102;5.776;2023-01-15T00:29:20;12.00;99.90
36990;DHT22;22898;52.102;5.776;2023-01-15T00:31:57;11.40;99.90
36990;DHT22;22898;52.102;5.776;2023-01-15T00:34:24;10.80;99.90
36990;DHT22;22898;52.102;5.776;2023-01-15T00:36:49;10.50;99.90
36990;DHT22;22898;52.102;5.776;2023-01-15T00:39:15;10.30;99.90
36990;DHT22;22898;52.102;5.776;2023-01-15T00:41:41;10.60;99.90
36990;DHT22;22898;52.102;5.776;2023-01-15T00:44:07;10.90;99.90
36990;DHT22;22898;52.102;5.776;2023-01-15T00:46:32;11.10;99.90
36990;DHT22;22898;52.102;5.776;2023-01-15T00:48:58;11.20;99.90
36990;DHT22;22898;52.102;5.776;2023-01-15T00:51:24;11.10;99.90
36990;DHT22;22898;52.102;5.776;2023-01-15T00:53:49;10.70;99.90
36990;DHT22;22898;52.102;5.776;2023-01-15T00:56:15;10.90;99.90
36990;DHT22;22898;52.102;5.776;2023-01-15T00:58:40;11.80;99.90
36990;DHT22;22898;52.102;5.776;2023-01-15T01:01:06;11.80;99.90
36990;DHT22;22898;52.102;5.776;2023-01-15T01:03:32;11.50;99.90
36990;DHT22;22898;52.102;5.776;2023-01-15T01:06:01;11.50;99.90
36990;DHT22;22898;52.102;5.776;2023-01-15T01:08:27;11.50;99.90
36990;DHT22;22898;52.102;5.776;2023-01-15T01:11:08;10.80;99.90
36990;DHT22;22898;52.102;5.776;2023-01-15T01:13:34;10.60;99.90
36990;DHT22;22898;52.102;5.776;2023-01-15T01:16:00;10.80;99.90
36990;DHT22;22898;52.102;5.776;2023-01-15T01:18:26;10.90;99.90
36990;DHT22;22898;52.102;5.776;2023-01-15T01:20:51;11.10;99.90
36990;DHT22;22898;52.102;5.776;2023-01-15T01:23:17;11.30;99.90
36990;DHT22;22898;52.102;5.776;2023-01-15T01:25:43;11.70;99.90
36990;DHT22;22898;52.102;5.776;2023-01-15T01:28:09;11.80;99.90
36990;DHT22;22898;52.102;5.776;2023-01-15T01:30:36;11.50;99.90
36990;DHT22;22898;52.102;5.776;2023-01-15T01:33:02;11.60;99.90
36990;DHT22;22898;52.102;5.776;2023-01-15T01:35:28;11.40;99.90
36990;DHT22;22898;52.102;5.776;2023-01-15T01:37:53;11.00;99.90
36990;DHT22;22898;52.102;5.776;2023-01-15T01:40:19;10.70;99.90
36990;DHT22;22898;52.102;5.776;2023-01-15T01:42:45;10.60;99.90
36990;DHT22;22898;52.102;5.776;2023-01-15T01:45:30;10.80;99.90
36990;DHT22;22898;52.102;5.776;2023-01-15T01:48:03;11.00;99.90
36990;DHT22;22898;52.102;5.776;2023-01-15T01:50:31;11.00;99.90
36990;DHT22;22898;52.102;5.776;2023-01-15T01:53:03;10.60;99.90
36990;DHT22;22898;52.102;5.776;2023-01-15T01:55:32;11.10;99.90
36990;DHT22;22898;52.102;5.776;2023-01-15T01:57:59;11.40;99.90
36990;DHT22;22898;52.102;5.776;2023-01-15T02:00:27;11.30;99.90
36990;DHT22;22898;52.102;5.776;2023-01-15T02:02:53;11.00;99.90
36990;DHT22;22898;52.102;5.776;2023-01-15T02:05:31;10.70;99.90
36990;DHT22;22898;52.102;5.776;2023-01-15T02:07:57;10.50;99.90
36990;DHT22;22898;52.102;5.776;2023-01-15T02:10:24;10.60;99.90
36990;DHT22;22898;52.102;5.776;2023-01-15T02:13:03;10.90;99.90
36990;DHT22;22898;52.102;5.776;2023-01-15T02:15:39;11.00;99.90
36990;DHT22;22898;52.102;5.776;2023-01-15T02:18:25;10.90;99.90
36990;DHT22;22898;52.102;5.776;2023-01-15T02:21:11;10.80;99.90
36990;DHT22;22898;52.102;5.776;2023-01-15T02:24:05;10.70;99.90
36990;DHT22;22898;52.102;5.776;2023-01-15T02:29:17;10.70;99.90
36990;DHT22;22898;52.102;5.776;2023-01-15T02:31:49;11.10;99.90
36990;DHT22;22898;52.102;5.776;2023-01-15T02:34:29;11.00;99.90
36990;DHT22;22898;52.102;5.776;2023-01-15T02:37:02;10.80;99.90
36990;DHT22;22898;52.102;5.776;2023-01-15T02:39:29;11.10;99.90
36990;DHT22;22898;52.102;5.776;2023-01-15T02:41:59;11.40;99.90
36990;DHT22;22898;52.102;5.776;2023-01-15T02:44:26;11.50;99.90
36990;DHT22;22898;52.102;5.776;2023-01-15T02:46:54;11.40;99.90
36990;DHT22;22898;52.102;5.776;2023-01-15T02:49:21;11.60;99.90
36990;DHT22;22898;52.102;5.776;2023-01-15T02:52:09;11.30;99.90
36990;DHT22;22898;52.102;5.776;2023-01-15T02:54:46;11.70;99.90
36990;DHT22;22898;52.102;5.776;2023-01-15T02:57:13;11.60;99.90
36990;DHT22;22898;52.102;5.776;2023-01-15T02:59:43;11.00;99.90
36990;DHT22;22898;52.102;5.776;2023-01-15T03:02:14;10.90;99.90
36990;DHT22;22898;52.102;5.776;2023-01-15T03:04:43;11.00;99.90
36990;DHT22;22898;52.102;5.776;2023-01-15T03:10:00;10.90;99.90
36990;DHT22;22898;52.102;5.776;2023-01-15T03:15:23;11.80;99.90
36990;DHT22;22898;52.102;5.776;2023-01-15T03:18:11;12.30;99.40
36990;DHT22;22898;52.102;5.776;2023-01-15T03:20:41;12.40;99.00
36990;DHT22;22898;52.102;5.776;2023-01-15T03:23:10;12.00;99.80
36990;DHT22;22898;52.102;5.776;2023-01-15T03:25:43;11.40;99.90
36990;DHT22;22898;52.102;5.776;2023-01-15T03:28:11;11.20;99.90
36990;DHT22;22898;52.102;5.776;2023-01-15T03:30:38;10.90;99.90
36990;DHT22;22898;52.102;5.776;2023-01-15T03:33:04;10.90;99.90
36990;DHT22;22898;52.102;5.776;2023-01-15T03:38:15;10.60;99.90
36990;DHT22;22898;52.102;5.776;2023-01-15T03:43:45;10.20;99.90
36990;DHT22;22898;52.102;5.776;2023-01-15T03:46:46;10.10;99.90
36990;DHT22;22898;52.102;5.776;2023-01-15T03:49:25;10.40;99.90
36990;DHT22;22898;52.102;5.776;2023-01-15T03:52:15;10.90;99.90
36990;DHT22;22898;52.102;5.776;2023-01-15T03:55:13;10.50;99.90
36990;DHT22;22898;52.102;5.776;2023-01-15T03:58:00;10.50;99.90
36990;DHT22;22898;52.102;5.776;2023-01-15T04:00:47;10.40;99.90
36990;DHT22;22898;52.102;5.776;2023-01-15T04:03:15;10.20;99.90
36990;DHT22;22898;52.102;5.776;2023-01-15T04:05:42;10.60;99.90
36990;DHT22;22898;52.102;5.776;2023-01-15T04:08:10;10.90;99.90
36990;DHT22;22898;52.102;5.776;2023-01-15T04:10:36;11.10;99.90
36990;DHT22;22898;52.102;5.776;2023-01-15T04:13:02;10.90;99.90
36990;DHT22;22898;52.102;5.776;2023-01-15T04:15:27;10.70;99.90
36990;DHT22;22898;52.102;5.776;2023-01-15T04:17:53;11.40;99.90
36990;DHT22;22898;52.102;5.776;2023-01-15T04:20:18;11.10;99.90
36990;DHT22;22898;52.102;5.776;2023-01-15T04:22:44;10.90;99.90
36990;DHT22;22898;52.102;5.776;2023-01-15T04:25:10;10.70;99.90
36990;DHT22;22898;52.102;5.776;2023-01-15T04:27:35;10.20;99.90
36990;DHT22;22898;52.102;5.776;2023-01-15T04:30:01;10.30;99.90
36990;DHT22;22898;52.102;5.776;2023-01-15T04:32:27;10.80;99.90
36990;DHT22;22898;52.102;5.776;2023-01-15T04:34:52;10.90;99.90
36990;DHT22;22898;52.102;5.776;2023-01-15T04:37:18;11.00;99.90
36990;DHT22;22898;52.102;5.776;2023-01-15T04:39:43;10.80;99.90
36990;DHT22;22898;52.102;5.776;2023-01-15T04:42:14;10.90;99.90
36990;DHT22;22898;52.102;5.776;2023-01-15T04:44:58;11.20;99.90
36990;DHT22;22898;52.102;5.776;2023-01-15T04:47:24;11.50;99.90
36990;DHT22;22898;52.102;5.776;2023-01-15T04:49:49;11.70;99.80
36990;DHT22;22898;52.102;5.776;2023-01-15T04:52:16;11.60;99.90
36990;DHT22;22898;52.102;5.776;2023-01-15T04:54:41;11.30;99.90
36990;DHT22;22898;52.102;5.776;2023-01-15T04:57:07;11.00;99.90
36990;DHT22;22898;52.102;5.776;2023-01-15T04:59:32;11.20;99.90
36990;DHT22;22898;52.102;5.776;2023-01-15T05:01:58;11.40;99.90
36990;DHT22;22898;52.102;5.776;2023-01-15T05:04:24;11.60;99.90
36990;DHT22;22898;52.102;5.776;2023-01-15T05:06:49;11.40;99.90
36990;DHT22;22898;52.102;5.776;2023-01-15T05:09:15;11.70;99.70
36990;DHT22;22898;52.102;5.776;2023-01-15T05:11:41;11.90;99.50
36990;DHT22;22898;52.102;5.776;2023-01-15T05:14:07;11.90;99.40
36990;DHT22;22898;52.102;5.776;2023-01-15T05:16:33;11.20;99.90
36990;DHT22;22898;52.102;5.776;2023-01-15T05:19:01;11.00;99.90
36990;DHT22;22898;52.102;5.776;2023-01-15T05:21:32;11.40;99.90
36990;DHT22;22898;52.102;5.776;2023-01-15T05:24:00;11.60;99.90
36990;DHT22;22898;52.102;5.776;2023-01-15T05:26:28;11.70;99.60
36990;DHT22;22898;52.102;5.776;2023-01-15T05:28:56;11.60;99.90
36990;DHT22;22898;52.102;5.776;2023-01-15T05:31:23;11.60;99.80
36990;DHT22;22898;52.102;5.776;2023-01-15T05:33:49;11.60;99.70
36990;DHT22;22898;52.102;5.776;2023-01-15T05:36:18;11.50;99.90
36990;DHT22;22898;52.102;5.776;2023-01-15T05:38:44;11.70;99.20
36990;DHT22;22898;52.102;5.776;2023-01-15T05:41:17;11.20;99.90
36990;DHT22;22898;52.102;5.776;2023-01-15T05:44:04;11.40;99.90
36990;DHT22;22898;52.102;5.776;2023-01-15T05:46:30;11.60;99.60
36990;DHT22;22898;52.102;5.776;2023-01-15T05:49:01;11.00;99.90
36990;DHT22;22898;52.102;5.776;2023-01-15T05:51:27;10.40;99.90
36990;DHT22;22898;52.102;5.776;2023-01-15T05:53:54;10.40;99.90
36990;DHT22;22898;52.102;5.776;2023-01-15T05:56:19;10.70;99.90
36990;DHT22;22898;52.102;5.776;2023-01-15T05:58:45;10.30;99.90
36990;DHT22;22898;52.102;5.776;2023-01-15T06:01:11;10.00;99.90
36990;DHT22;22898;52.102;5.776;2023-01-15T06:03:36;9.90;99.90
36990;DHT22;22898;52.102;5.776;2023-01-15T06:06:03;10.50;99.90
36990;DHT22;22898;52.102;5.776;2023-01-15T06:08:29;10.70;99.90
36990;DHT22;22898;52.102;5.776;2023-01-15T06:10:54;10.40;99.90
36990;DHT22;22898;52.102;5.776;2023-01-15T06:13:20;10.90;99.90
36990;DHT22;22898;52.102;5.776;2023-01-15T06:15:46;10.50;99.90
36990;DHT22;22898;52.102;5.776;2023-01-15T06:18:11;10.20;99.90
36990;DHT22;22898;52.102;5.776;2023-01-15T06:20:38;10.40;99.90
36990;DHT22;22898;52.102;5.776;2023-01-15T06:23:04;10.40;99.90
36990;DHT22;22898;52.102;5.776;2023-01-15T06:25:32;10.30;99.90
36990;DHT22;22898;52.102;5.776;2023-01-15T06:27:59;10.20;99.90
36990;DHT22;22898;52.102;5.776;2023-01-15T06:30:25;10.00;99.90
36990;DHT22;22898;52.102;5.776;2023-01-15T06:32:50;10.00;99.90
36990;DHT22;22898;52.102;5.776;2023-01-15T06:35:16;9.90;99.90
36990;DHT22;22898;52.102;5.776;2023-01-15T06:37:41;10.30;99.90
36990;DHT22;22898;52.102;5.776;2023-01-15T06:40:08;10.40;99.90
36990;DHT22;22898;52.102;5.776;2023-01-15T06:42:34;10.10;99.90
36990;DHT22;22898;52.102;5.776;2023-01-15T06:45:18;10.10;99.90
36990;DHT22;22898;52.102;5.776;2023-01-15T06:48:02;10.60;99.90
36990;DHT22;22898;52.102;5.776;2023-01-15T06:50:28;10.70;99.90
36990;DHT22;22898;52.102;5.776;2023-01-15T06:52:53;10.30;99.90
36990;DHT22;22898;52.102;5.776;2023-01-15T06:55:19;9.60;99.90
36990;DHT22;22898;52.102;5.776;2023-01-15T06:57:44;9.10;99.90
36990;DHT22;22898;52.102;5.776;2023-01-15T07:00:11;8.60;99.90
36990;DHT22;22898;52.102;5.776;2023-01-15T07:02:37;8.80;99.90
36990;DHT22;22898;52.102;5.776;2023-01-15T07:05:05;8.80;99.90
36990;DHT22;22898;52.102;5.776;2023-01-15T07:07:31;8.60;99.90
36990;DHT22;22898;52.102;5.776;2023-01-15T07:09:57;8.90;99.90
36990;DHT22;22898;52.102;5.776;2023-01-15T07:12:23;9.40;99.90
36990;DHT22;22898;52.102;5.776;2023-01-15T07:14:49;9.40;99.90
36990;DHT22;22898;52.102;5.776;2023-01-15T07:17:14;9.80;99.90
36990;DHT22;22898;52.102;5.776;2023-01-15T07:19:40;10.30;99.90
36990;DHT22;22898;52.102;5.776;2023-01-15T07:22:06;10.40;99.90
36990;DHT22;22898;52.102;5.776;2023-01-15T07:24:32;10.30;99.90
36990;DHT22;22898;52.102;5.776;2023-01-15T07:26:58;10.50;99.90
36990;DHT22;22898;52.102;5.776;2023-01-15T07:29:23;10.30;99.90
36990;DHT22;22898;52.102;5.776;2023-01-15T07:31:50;10.00;99.90
36990;DHT22;22898;52.102;5.776;2023-01-15T07:34:16;9.90;99.90
36990;DHT22;22898;52.102;5.776;2023-01-15T07:36:41;9.70;99.90
36990;DHT22;22898;52.102;5.776;2023-01-15T07:39:09;10.10;99.90
36990;DHT22;22898;52.102;5.776;2023-01-15T07:41:35;9.90;99.90
36990;DHT22;22898;52.102;5.776;2023-01-15T07:44:39;10.10;99.90
36990;DHT22;22898;52.102;5.776;2023-01-15T07:47:25;10.60;99.90
36990;DHT22;22898;52.102;5.776;2023-01-15T07:50:13;10.20;99.90
36990;DHT22;22898;52.102;5.776;2023-01-15T07:52:39;10.10;99.90
36990;DHT22;22898;52.102;5.776;2023-01-15T07:55:05;10.30;99.90
36990;DHT22;22898;52.102;5.776;2023-01-15T07:57:32;10.30;99.90
36990;DHT22;22898;52.102;5.776;2023-01-15T07:59:58;10.10;99.90
36990;DHT22;22898;52.102;5.776;2023-01-15T08:02:24;9.60;99.90
36990;DHT22;22898;52.102;5.776;2023-01-15T08:04:50;9.10;99.90
36990;DHT22;22898;52.102;5.776;2023-01-15T08:07:15;9.20;99.90
36990;DHT22;22898;52.102;5.776;2023-01-15T08:09:41;9.50;99.90
36990;DHT22;22898;52.102;5.776;2023-01-15T08:12:07;9.30;99.90
36990;DHT22;22898;52.102;5.776;2023-01-15T08:14:53;9.40;99.90
36990;DHT22;22898;52.102;5.776;2023-01-15T08:17:38;9.40;99.90
36990;DHT22;22898;52.102;5.776;2023-01-15T08:20:06;9.90;99.90
36990;DHT22;22898;52.102;5.776;2023-01-15T08:22:32;10.20;99.90
36990;DHT22;22898;52.102;5.776;2023-01-15T08:24:59;10.40;99.90
36990;DHT22;22898;52.102;5.776;2023-01-15T08:27:24;10.40;99.90
36990;DHT22;22898;52.102;5.776;2023-01-15T08:29:51;10.60;99.70
36990;DHT22;22898;52.102;5.776;2023-01-15T08:32:16;10.00;99.90
36990;DHT22;22898;52.102;5.776;2023-01-15T08:34:42;10.10;99.90
36990;DHT22;22898;52.102;5.776;2023-01-15T08:37:08;10.00;99.90
36990;DHT22;22898;52.102;5.776;2023-01-15T08:39:33;10.00;99.90
36990;DHT22;22898;52.102;5.776;2023-01-15T08:41:59;9.70;99.90
36990;DHT22;22898;52.102;5.776;2023-01-15T08:44:24;9.40;99.90
36990;DHT22;22898;52.102;5.776;2023-01-15T08:46:51;9.60;99.90
36990;DHT22;22898;52.102;5.776;2023-01-15T08:49:17;9.80;99.90
36990;DHT22;22898;52.102;5.776;2023-01-15T08:51:44;9.70;99.90
36990;DHT22;22898;52.102;5.776;2023-01-15T08:54:10;9.80;99.90
36990;DHT22;22898;52.102;5.776;2023-01-15T08:56:37;9.80;99.90
36990;DHT22;22898;52.102;5.776;2023-01-15T08:59:06;9.40;99.90
36990;DHT22;22898;52.102;5.776;2023-01-15T09:01:32;9.30;99.90
36990;DHT22;22898;52.102;5.776;2023-01-15T09:03:58;9.60;99.90
36990;DHT22;22898;52.102;5.776;2023-01-15T09:06:24;10.00;99.90
36990;DHT22;22898;52.102;5.776;2023-01-15T09:08:50;9.60;99.80
36990;DHT22;22898;52.102;5.776;2023-01-15T09:11:15;9.40;99.90
36990;DHT22;22898;52.102;5.776;2023-01-15T09:13:41;9.70;99.90
36990;DHT22;22898;52.102;5.776;2023-01-15T09:16:07;9.40;99.90
36990;DHT22;22898;52.102;5.776;2023-01-15T09:18:35;9.30;99.90
36990;DHT22;22898;52.102;5.776;2023-01-15T09:21:01;9.40;99.90
36990;DHT22;22898;52.102;5.776;2023-01-15T09:23:27;9.10;99.90
36990;DHT22;22898;52.102;5.776;2023-01-15T09:25:56;9.40;99.90
36990;DHT22;22898;52.102;5.776;2023-01-15T09:28:22;9.50;99.90
36990;DHT22;22898;52.102;5.776;2023-01-15T09:30:48;9.20;99.90
36990;DHT22;22898;52.102;5.776;2023-01-15T09:33:14;9.10;99.90
36990;DHT22;22898;52.102;5.776;2023-01-15T09:35:42;9.00;99.90
36990;DHT22;22898;52.102;5.776;2023-01-15T09:38:15;9.40;99.90
36990;DHT22;22898;52.102;5.776;2023-01-15T09:40:56;9.30;99.90
36990;DHT22;22898;52.102;5.776;2023-01-15T09:43:26;8.60;99.90
36990;DHT22;22898;52.102;5.776;2023-01-15T09:45:58;8.60;99.90
36990;DHT22;22898;52.102;5.776;2023-01-15T09:51:38;9.00;99.90
36990;DHT22;22898;52.102;5.776;2023-01-15T09:56:44;9.00;99.90
36990;DHT22;22898;52.102;5.776;2023-01-15T09:59:41;9.50;99.90
36990;DHT22;22898;52.102;5.776;2023-01-15T10:02:24;9.40;99.50
36990;DHT22;22898;52.102;5.776;2023-01-15T10:04:56;9.40;99.80
36990;DHT22;22898;52.102;5.776;2023-01-15T10:10:19;8.90;99.90
36990;DHT22;22898;52.102;5.776;2023-01-15T10:12:46;9.10;99.90
36990;DHT22;22898;52.102;5.776;2023-01-15T10:15:19;9.60;99.90
36990;DHT22;22898;52.102;5.776;2023-01-15T10:17:48;9.70;99.70
36990;DHT22;22898;52.102;5.776;2023-01-15T10:23:25;10.10;99.30
36990;DHT22;22898;52.102;5.776;2023-01-15T10:28:59;9.90;99.20
36990;DHT22;22898;52.102;5.776;2023-01-15T10:31:54;9.50;99.90
36990;DHT22;22898;52.102;5.776;2023-01-15T10:37:17;9.50;99.90
36990;DHT22;22898;52.102;5.776;2023-01-15T10:46:01;9.90;99.60
36990;DHT22;22898;52.102;5.776;2023-01-15T10:48:40;10.20;99.00
36990;DHT22;22898;52.102;5.776;2023-01-15T10:51:25;10.20;99.20
36990;DHT22;22898;52.102;5.776;2023-01-15T10:54:20;10.60;98.30
36990;DHT22;22898;52.102;5.776;2023-01-15T10:57:08;10.60;98.10
36990;DHT22;22898;52.102;5.776;2023-01-15T10:59:45;10.50;98.10
36990;DHT22;22898;52.102;5.776;2023-01-15T11:02:33;10.10;99.80
36990;DHT22;22898;52.102;5.776;2023-01-15T11:05:02;10.30;98.70
36990;DHT22;22898;52.102;5.776;2023-01-15T11:07:40;9.60;99.50
36990;DHT22;22898;52.102;5.776;2023-01-15T11:10:08;9.40;99.90
36990;DHT22;22898;52.102;5.776;2023-01-15T11:12:51;9.90;99.20
36990;DHT22;22898;52.102;5.776;2023-01-15T11:15:36;9.80;99.60
36990;DHT22;22898;52.102;5.776;2023-01-15T11:18:25;9.60;99.80
36990;DHT22;22898;52.102;5.776;2023-01-15T11:21:12;9.70;99.80
36990;DHT22;22898;52.102;5.776;2023-01-15T11:23:40;9.90;99.20
36990;DHT22;22898;52.102;5.776;2023-01-15T11:26:06;9.60;99.80
36990;DHT22;22898;52.102;5.776;2023-01-15T11:28:37;9.60;99.70
36990;DHT22;22898;52.102;5.776;2023-01-15T11:31:06;10.10;99.30
36990;DHT22;22898;52.102;5.776;2023-01-15T11:33:32;10.10;99.00
36990;DHT22;22898;52.102;5.776;2023-01-15T11:36:00;10.40;99.10
36990;DHT22;22898;52.102;5.776;2023-01-15T11:38:41;10.90;98.40
36990;DHT22;22898;52.102;5.776;2023-01-15T11:43:53;9.90;99.30
36990;DHT22;22898;52.102;5.776;2023-01-15T11:46:37;9.50;99.90
36990;DHT22;22898;52.102;5.776;2023-01-15T11:49:21;9.90;99.90
36990;DHT22;22898;52.102;5.776;2023-01-15T11:52:09;9.30;99.90
36990;DHT22;22898;52.102;5.776;2023-01-15T11:54:41;9.30;99.90
36990;DHT22;22898;52.102;5.776;2023-01-15T11:57:08;9.70;99.90
36990;DHT22;22898;52.102;5.776;2023-01-15T11:59:35;10.00;99.90
36990;DHT22;22898;52.102;5.776;2023-01-15T12:02:05;10.00;99.90
36990;DHT22;22898;52.102;5.776;2023-01-15T12:04:39;10.10;99.90
36990;DHT22;22898;52.102;5.776;2023-01-15T12:07:12;10.50;99.90
36990;DHT22;22898;52.102;5.776;2023-01-15T12:09:42;10.10;99.90
36990;DHT22;22898;52.102;5.776;2023-01-15T12:15:06;9.80;99.90
36990;DHT22;22898;52.102;5.776;2023-01-15T12:23:30;10.30;99.90
36990;DHT22;22898;52.102;5.776;2023-01-15T12:26:07;9.50;99.90
36990;DHT22;22898;52.102;5.776;2023-01-15T12:31:37;9.80;99.90
36990;DHT22;22898;52.102;5.776;2023-01-15T12:34:11;10.10;99.90
36990;DHT22;22898;52.102;5.776;2023-01-15T12:36:45;9.80;99.90
36990;DHT22;22898;52.102;5.776;2023-01-15T12:39:45;9.80;99.90
36990;DHT22;22898;52.102;5.776;2023-01-15T12:42:16;9.30;99.90
36990;DHT22;22898;52.102;5.776;2023-01-15T12:45:06;9.10;99.90
36990;DHT22;22898;52.102;5.776;2023-01-15T12:47:48;9.00;99.90
36990;DHT22;22898;52.102;5.776;2023-01-15T12:56:03;9.70;99.90
36990;DHT22;22898;52.102;5.776;2023-01-15T13:04:33;9.20;99.90
36990;DHT22;22898;52.102;5.776;2023-01-15T13:07:37;8.60;99.90
36990;DHT22;22898;52.102;5.776;2023-01-15T13:10:12;8.40;99.90
36990;DHT22;22898;52.102;5.776;2023-01-15T13:12:40;8.60;99.90
36990;DHT22;22898;52.102;5.776;2023-01-15T13:15:06;8.30;99.90
36990;DHT22;22898;52.102;5.776;2023-01-15T13:20:26;8.60;99.90
36990;DHT22;22898;52.102;5.776;2023-01-15T13:23:13;8.60;99.90
36990;DHT22;22898;52.102;5.776;2023-01-15T13:25:57;8.60;99.90
36990;DHT22;22898;52.102;5.776;2023-01-15T13:28:34;8.70;99.90
36990;DHT22;22898;52.102;5.776;2023-01-15T13:31:14;8.60;99.90
36990;DHT22;22898;52.102;5.776;2023-01-15T13:33:54;9.00;99.90
36990;DHT22;22898;52.102;5.776;2023-01-15T13:36:39;8.70;99.90
36990;DHT22;22898;52.102;5.776;2023-01-15T13:39:15;8.80;99.90
36990;DHT22;22898;52.102;5.776;2023-01-15T13:41:41;9.30;99.90
36990;DHT22;22898;52.102;5.776;2023-01-15T13:44:30;9.40;99.90
36990;DHT22;22898;52.102;5.776;2023-01-15T13:49:33;8.90;99.90
36990;DHT22;22898;52.102;5.776;2023-01-15T13:52:01;8.60;99.90
36990;DHT22;22898;52.102;5.776;2023-01-15T13:54:32;8.20;99.90
36990;DHT22;22898;52.102;5.776;2023-01-15T13:57:08;7.80;99.90
36990;DHT22;22898;52.102;5.776;2023-01-15T13:59:40;7.60;99.90
36990;DHT22;22898;52.102;5.776;2023-01-15T14:04:49;8.50;99.90
36990;DHT22;22898;52.102;5.776;2023-01-15T14:07:30;9.00;99.90
36990;DHT22;22898;52.102;5.776;2023-01-15T14:10:53;9.30;99.90
36990;DHT22;22898;52.102;5.776;2023-01-15T14:16:14;9.00;99.90
36990;DHT22;22898;52.102;5.776;2023-01-15T14:19:01;9.10;99.90
36990;DHT22;22898;52.102;5.776;2023-01-15T14:24:39;9.80;99.90
36990;DHT22;22898;52.102;5.776;2023-01-15T14:27:35;9.50;99.90
36990;DHT22;22898;52.102;5.776;2023-01-15T14:30:19;9.50;99.90
36990;DHT22;22898;52.102;5.776;2023-01-15T14:35:36;9.20;99.90
36990;DHT22;22898;52.102;5.776;2023-01-15T14:38:07;9.40;99.90
36990;DHT22;22898;52.102;5.776;2023-01-15T14:40:37;9.50;99.90
36990;DHT22;22898;52.102;5.776;2023-01-15T14:43:16;9.50;99.90
36990;DHT22;22898;52.102;5.776;2023-01-15T14:45:44;9.30;99.90
36990;DHT22;22898;52.102;5.776;2023-01-15T14:51:09;9.60;99.90
36990;DHT22;22898;52.102;5.776;2023-01-15T14:53:48;9.70;99.90
36990;DHT22;22898;52.102;5.776;2023-01-15T14:56:26;9.10;99.90
36990;DHT22;22898;52.102;5.776;2023-01-15T15:02:34;9.50;99.90
36990;DHT22;22898;52.102;5.776;2023-01-15T15:04:57;9.40;99.90
36990;DHT22;22898;52.102;5.776;2023-01-15T15:07:26;9.30;99.90
36990;DHT22;22898;52.102;5.776;2023-01-15T15:10:04;9.00;99.90
36990;DHT22;22898;52.102;5.776;2023-01-15T15:12:53;9.30;99.90
36990;DHT22;22898;52.102;5.776;2023-01-15T15:20:52;9.60;99.90
36990;DHT22;22898;52.102;5.776;2023-01-15T15:26:16;9.40;99.90
36990;DHT22;22898;52.102;5.776;2023-01-15T15:28:42;9.30;99.90
36990;DHT22;22898;52.102;5.776;2023-01-15T15:31:08;9.20;99.90
36990;DHT22;22898;52.102;5.776;2023-01-15T15:33:39;8.90;99.90
36990;DHT22;22898;52.102;5.776;2023-01-15T15:36:06;9.10;99.90
36990;DHT22;22898;52.102;5.776;2023-01-15T15:38:33;9.40;99.90
36990;DHT22;22898;52.102;5.776;2023-01-15T15:41:01;9.70;99.90
36990;DHT22;22898;52.102;5.776;2023-01-15T15:43:51;9.80;99.90
36990;DHT22;22898;52.102;5.776;2023-01-15T15:46:48;10.10;99.90
36990;DHT22;22898;52.102;5.776;2023-01-15T15:49:40;10.30;99.90
36990;DHT22;22898;52.102;5.776;2023-01-15T15:52:20;10.30;99.90
36990;DHT22;22898;52.102;5.776;2023-01-15T15:55:00;10.00;99.90
36990;DHT22;22898;52.102;5.776;2023-01-15T15:57:31;8.70;99.90
36990;DHT22;22898;52.102;5.776;2023-01-15T15:59:58;8.50;99.90
36990;DHT22;22898;52.102;5.776;2023-01-15T16:02:36;8.20;99.90
36990;DHT22;22898;52.102;5.776;2023-01-15T16:07:48;8.40;99.90
36990;DHT22;22898;52.102;5.776;2023-01-15T16:10:15;8.60;99.90
36990;DHT22;22898;52.102;5.776;2023-01-15T16:12:50;8.60;99.90
36990;DHT22;22898;52.102;5.776;2023-01-15T16:15:20;8.80;99.90
36990;DHT22;22898;52.102;5.776;2023-01-15T16:17:46;8.70;99.90
36990;DHT22;22898;52.102;5.776;2023-01-15T16:20:15;8.80;99.90
36990;DHT22;22898;52.102;5.776;2023-01-15T16:22:49;9.00;99.90
36990;DHT22;22898;52.102;5.776;2023-01-15T16:27:55;9.90;99.90
36990;DHT22;22898;52.102;5.776;2023-01-15T16:30:21;9.40;99.90
36990;DHT22;22898;52.102;5.776;2023-01-15T16:32:47;9.40;99.90
36990;DHT22;22898;52.102;5.776;2023-01-15T16:35:23;9.20;99.90
36990;DHT22;22898;52.102;5.776;2023-01-15T16:37:50;8.90;99.90
36990;DHT22;22898;52.102;5.776;2023-01-15T16:40:37;7.90;99.90
36990;DHT22;22898;52.102;5.776;2023-01-15T16:45:32;7.70;99.90
36990;DHT22;22898;52.102;5.776;2023-01-15T16:50:33;8.60;99.90
36990;DHT22;22898;52.102;5.776;2023-01-15T16:53:02;8.40;99.90
36990;DHT22;22898;52.102;5.776;2023-01-15T17:00:38;8.10;99.90
36990;DHT22;22898;52.102;5.776;2023-01-15T17:03:11;8.40;99.90
36990;DHT22;22898;52.102;5.776;2023-01-15T17:05:37;8.70;99.90
36990;DHT22;22898;52.102;5.776;2023-01-15T17:08:03;8.80;99.90
36990;DHT22;22898;52.102;5.776;2023-01-15T17:10:29;8.50;99.90
36990;DHT22;22898;52.102;5.776;2023-01-15T17:12:57;8.70;99.90
36990;DHT22;22898;52.102;5.776;2023-01-15T17:17:55;9.60;99.90
36990;DHT22;22898;52.102;5.776;2023-01-15T17:20:22;9.50;99.90
36990;DHT22;22898;52.102;5.776;2023-01-15T17:22:52;9.30;99.90
36990;DHT22;22898;52.102;5.776;2023-01-15T17:27:51;9.30;99.90
36990;DHT22;22898;52.102;5.776;2023-01-15T17:30:17;8.80;99.90
36990;DHT22;22898;52.102;5.776;2023-01-15T17:32:43;8.60;99.90
36990;DHT22;22898;52.102;5.776;2023-01-15T17:35:26;8.90;99.90
36990;DHT22;22898;52.102;5.776;2023-01-15T17:37:52;9.10;99.90
36990;DHT22;22898;52.102;5.776;2023-01-15T17:40:18;8.80;99.90
36990;DHT22;22898;52.102;5.776;2023-01-15T17:42:44;9.30;99.90
36990;DHT22;22898;52.102;5.776;2023-01-15T17:45:19;9.90;99.90
36990;DHT22;22898;52.102;5.776;2023-01-15T17:47:44;9.80;99.90
36990;DHT22;22898;52.102;5.776;2023-01-15T17:50:10;10.30;99.90
36990;DHT22;22898;52.102;5.776;2023-01-15T17:52:37;10.10;99.90
36990;DHT22;22898;52.102;5.776;2023-01-15T17:55:03;9.90;99.90
36990;DHT22;22898;52.102;5.776;2023-01-15T17:57:46;9.90;99.90
36990;DHT22;22898;52.102;5.776;2023-01-15T18:00:31;8.80;99.90